Station Historical Data
Daily Summary for January 13, 2018 Units:  Both    English   Metric
« Previous Day
Next Day »
Daily Weekly Monthly Yearly Custom
  High: Low: Average:
Temperature: TemperatureF °F /  -17.8 °C 8.2 °F /  -13.2 °C 11.9 °F /  -11.2 °C
Dew Point: DewpointF °F /  -17.8 °C 3.1 °F /  -16.1 °C 7 °F /  -13.9 °C
Humidity: Humidity% 67% 80%
Wind Speed: WindSpeedMPHmph /  0km/h - 4.4mph /  7.1km/h
Wind Gust: WindSpeedGustMPHmph /  0km/h - -
Wind- - WNW
Pressure: PressureIn in /  0 hPa 29.91 in /  1012.8 hPa -
Precipitation: 0.00 in /  0 mm    
Historical Graphs
 
 
Tabular Data for January 13, 2018
Time Temperature Dew Point Pressure Wind Wind Speed Wind Gust Humidity Rainfall Rate (Hourly)
TemperatureF °F /  -17.8 °C DewpointF °F /  -17.8 °C PressureInin /  0hPa Calm     Humidity% HourlyPrecipInin /  0mm
00:04 16.6 °F /  -8.6 °C 13.7 °F /  -10.2 °C 29.97in /  1014.8hPa NNW 4.0mph /  6.4km/h 11.0mph /  17.7km/h 88% 0.00in /  0mm
00:09 16.5 °F /  -8.6 °C 13.6 °F /  -10.2 °C 29.97in /  1014.8hPa North 6.0mph /  9.7km/h 13.0mph /  20.9km/h 88% 0.00in /  0mm
00:14 16.4 °F /  -8.7 °C 13.5 °F /  -10.3 °C 29.97in /  1014.8hPa North 5.0mph /  8km/h 17.0mph /  27.4km/h 88% 0.00in /  0mm
00:24 16.2 °F /  -8.8 °C 13.3 °F /  -10.4 °C 29.97in /  1014.8hPa North 6.0mph /  9.7km/h 7.0mph /  11.3km/h 88% 0.00in /  0mm
00:29 16.1 °F /  -8.8 °C 13.2 °F /  -10.4 °C 29.97in /  1014.8hPa NW 4.0mph /  6.4km/h 11.0mph /  17.7km/h 88% 0.00in /  0mm
00:44 15.7 °F /  -9.1 °C 12.8 °F /  -10.7 °C 29.95in /  1014.1hPa North 4.0mph /  6.4km/h 14.0mph /  22.5km/h 88% 0.00in /  0mm
00:49 15.6 °F /  -9.1 °C 12.7 °F /  -10.7 °C 29.94in /  1013.8hPa North 6.0mph /  9.7km/h 14.0mph /  22.5km/h 88% 0.00in /  0mm
00:54 15.6 °F /  -9.1 °C 12.7 °F /  -10.7 °C 29.94in /  1013.8hPa North 6.0mph /  9.7km/h 12.0mph /  19.3km/h 88% 0.00in /  0mm
00:59 15.5 °F /  -9.2 °C 12.6 °F /  -10.8 °C 29.94in /  1013.8hPa North 5.0mph /  8km/h 11.0mph /  17.7km/h 88% 0.00in /  0mm
01:04 15.5 °F /  -9.2 °C 12.6 °F /  -10.8 °C 29.93in /  1013.4hPa North 5.0mph /  8km/h 10.0mph /  16.1km/h 88% 0.00in /  0mm
01:09 15.4 °F /  -9.2 °C 12.5 °F /  -10.8 °C 29.91in /  1012.8hPa NNW 16.0mph /  25.7km/h 16.0mph /  25.7km/h 88% 0.00in /  0mm
01:14 15.4 °F /  -9.2 °C 12.5 °F /  -10.8 °C 29.91in /  1012.8hPa NNE 7.0mph /  11.3km/h 16.0mph /  25.7km/h 88% 0.00in /  0mm
01:19 15.3 °F /  -9.3 °C 12.4 °F /  -10.9 °C 29.93in /  1013.4hPa North 6.0mph /  9.7km/h 16.0mph /  25.7km/h 88% 0.00in /  0mm
01:24 15.2 °F /  -9.3 °C 12.3 °F /  -10.9 °C 29.94in /  1013.8hPa NNE 5.0mph /  8km/h 8.0mph /  12.9km/h 88% 0.00in /  0mm
01:29 15.2 °F /  -9.3 °C 12.3 °F /  -10.9 °C 29.93in /  1013.4hPa North 5.0mph /  8km/h 13.0mph /  20.9km/h 88% 0.00in /  0mm
01:34 15.0 °F /  -9.4 °C 12.1 °F /  -11.1 °C 29.94in /  1013.8hPa North 6.0mph /  9.7km/h 13.0mph /  20.9km/h 88% 0.00in /  0mm
01:39 14.9 °F /  -9.5 °C 12.0 °F /  -11.1 °C 29.93in /  1013.4hPa North 7.0mph /  11.3km/h 15.0mph /  24.1km/h 88% 0.00in /  0mm
01:44 14.8 °F /  -9.6 °C 11.9 °F /  -11.2 °C 29.94in /  1013.8hPa North 2.0mph /  3.2km/h 7.0mph /  11.3km/h 88% 0.00in /  0mm
01:49 14.8 °F /  -9.6 °C 11.9 °F /  -11.2 °C 29.97in /  1014.8hPa NW 4.0mph /  6.4km/h 11.0mph /  17.7km/h 88% 0.00in /  0mm
01:54 14.8 °F /  -9.6 °C 11.9 °F /  -11.2 °C 29.97in /  1014.8hPa NNW 5.0mph /  8km/h 11.0mph /  17.7km/h 88% 0.00in /  0mm
01:59 14.7 °F /  -9.6 °C 11.8 °F /  -11.2 °C 29.98in /  1015.1hPa North 5.0mph /  8km/h 11.0mph /  17.7km/h 88% 0.00in /  0mm
02:04 14.6 °F /  -9.7 °C 11.7 °F /  -11.3 °C 29.97in /  1014.8hPa North 6.0mph /  9.7km/h 13.0mph /  20.9km/h 88% 0.00in /  0mm
02:09 14.6 °F /  -9.7 °C 11.7 °F /  -11.3 °C 29.96in /  1014.4hPa NNW 5.0mph /  8km/h 11.0mph /  17.7km/h 88% 0.00in /  0mm
02:14 14.5 °F /  -9.7 °C 11.6 °F /  -11.3 °C 29.97in /  1014.8hPa NNW 3.0mph /  4.8km/h 9.0mph /  14.5km/h 88% 0.00in /  0mm
02:19 14.5 °F /  -9.7 °C 11.6 °F /  -11.3 °C 29.99in /  1015.5hPa NNE 7.0mph /  11.3km/h 12.0mph /  19.3km/h 88% 0.00in /  0mm
02:24 14.5 °F /  -9.7 °C 11.6 °F /  -11.3 °C 29.99in /  1015.5hPa North 5.0mph /  8km/h 10.0mph /  16.1km/h 88% 0.00in /  0mm
02:29 14.4 °F /  -9.8 °C 11.5 °F /  -11.4 °C 30.01in /  1016.1hPa NNW 6.0mph /  9.7km/h 11.0mph /  17.7km/h 88% 0.00in /  0mm
02:34 14.3 °F /  -9.8 °C 11.4 °F /  -11.4 °C 30.01in /  1016.1hPa NNW 5.0mph /  8km/h 11.0mph /  17.7km/h 88% 0.00in /  0mm
02:39 14.2 °F /  -9.9 °C 11.3 °F /  -11.5 °C 30.01in /  1016.1hPa NNW 4.0mph /  6.4km/h 11.0mph /  17.7km/h 88% 0.00in /  0mm
02:44 14.1 °F /  -9.9 °C 11.2 °F /  -11.6 °C 30.00in /  1015.8hPa NNW 5.0mph /  8km/h 13.0mph /  20.9km/h 88% 0.00in /  0mm
02:49 14.0 °F /  -10 °C 11.1 °F /  -11.6 °C 30.00in /  1015.8hPa North 7.0mph /  11.3km/h 15.0mph /  24.1km/h 88% 0.00in /  0mm
02:54 14.0 °F /  -10 °C 11.1 °F /  -11.6 °C 30.00in /  1015.8hPa North 6.0mph /  9.7km/h 8.0mph /  12.9km/h 88% 0.00in /  0mm
02:59 13.9 °F /  -10.1 °C 11.0 °F /  -11.7 °C 30.00in /  1015.8hPa North 5.0mph /  8km/h 12.0mph /  19.3km/h 88% 0.00in /  0mm
03:04 13.8 °F /  -10.1 °C 10.9 °F /  -11.7 °C 30.00in /  1015.8hPa North 6.0mph /  9.7km/h 12.0mph /  19.3km/h 88% 0.00in /  0mm
03:09 13.6 °F /  -10.2 °C 10.7 °F /  -11.8 °C 29.99in /  1015.5hPa North 6.0mph /  9.7km/h 16.0mph /  25.7km/h 88% 0.00in /  0mm
03:14 13.5 °F /  -10.3 °C 10.6 °F /  -11.9 °C 30.00in /  1015.8hPa NNE 6.0mph /  9.7km/h 11.0mph /  17.7km/h 88% 0.00in /  0mm
03:19 13.4 °F /  -10.3 °C 10.5 °F /  -11.9 °C 30.00in /  1015.8hPa North 5.0mph /  8km/h 8.0mph /  12.9km/h 88% 0.00in /  0mm
03:24 13.4 °F /  -10.3 °C 10.5 °F /  -11.9 °C 30.00in /  1015.8hPa NNW 3.0mph /  4.8km/h 10.0mph /  16.1km/h 88% 0.00in /  0mm
03:29 13.3 °F /  -10.4 °C 10.4 °F /  -12 °C 30.01in /  1016.1hPa NW 3.0mph /  4.8km/h 9.0mph /  14.5km/h 88% 0.00in /  0mm
03:34 13.2 °F /  -10.4 °C 10.3 °F /  -12.1 °C 30.01in /  1016.1hPa North 13.0mph /  20.9km/h 13.0mph /  20.9km/h 88% 0.00in /  0mm
03:39 13.2 °F /  -10.4 °C 10.3 °F /  -12.1 °C 30.01in /  1016.1hPa NNW 5.0mph /  8km/h 13.0mph /  20.9km/h 88% 0.00in /  0mm
03:44 13.1 °F /  -10.5 °C 10.0 °F /  -12.2 °C 30.02in /  1016.5hPa North 5.0mph /  8km/h 13.0mph /  20.9km/h 87% 0.00in /  0mm
03:49 13.1 °F /  -10.5 °C 10.0 °F /  -12.2 °C 30.02in /  1016.5hPa North 4.0mph /  6.4km/h 12.0mph /  19.3km/h 87% 0.00in /  0mm
03:54 13.0 °F /  -10.6 °C 10.1 °F /  -12.2 °C 30.02in /  1016.5hPa North 5.0mph /  8km/h 16.0mph /  25.7km/h 88% 0.00in /  0mm
03:59 12.8 °F /  -10.7 °C 9.7 °F /  -12.4 °C 30.02in /  1016.5hPa North 6.0mph /  9.7km/h 15.0mph /  24.1km/h 87% 0.00in /  0mm
04:09 12.6 °F /  -10.8 °C 9.5 °F /  -12.5 °C 30.02in /  1016.5hPa North 6.0mph /  9.7km/h 13.0mph /  20.9km/h 87% 0.00in /  0mm
04:14 12.5 °F /  -10.8 °C 9.4 °F /  -12.6 °C 30.02in /  1016.5hPa NNW 6.0mph /  9.7km/h 13.0mph /  20.9km/h 87% 0.00in /  0mm
04:19 12.5 °F /  -10.8 °C 9.4 °F /  -12.6 °C 30.02in /  1016.5hPa NNW 6.0mph /  9.7km/h 14.0mph /  22.5km/h 87% 0.00in /  0mm
04:24 12.3 °F /  -10.9 °C 9.2 °F /  -12.7 °C 30.02in /  1016.5hPa NNW 7.0mph /  11.3km/h 15.0mph /  24.1km/h 87% 0.00in /  0mm
04:29 12.3 °F /  -10.9 °C 9.2 °F /  -12.7 °C 30.03in /  1016.8hPa NNW 7.0mph /  11.3km/h 12.0mph /  19.3km/h 87% 0.00in /  0mm
04:34 12.2 °F /  -11 °C 9.1 °F /  -12.7 °C 30.03in /  1016.8hPa WNW 12.0mph /  19.3km/h 12.0mph /  19.3km/h 87% 0.00in /  0mm
04:39 12.2 °F /  -11 °C 9.1 °F /  -12.7 °C 30.04in /  1017.2hPa North 10.0mph /  16.1km/h 11.0mph /  17.7km/h 87% 0.00in /  0mm
04:44 12.2 °F /  -11 °C 9.1 °F /  -12.7 °C 30.04in /  1017.2hPa North 3.0mph /  4.8km/h 12.0mph /  19.3km/h 87% 0.00in /  0mm
04:54 12.1 °F /  -11.1 °C 9.0 °F /  -12.8 °C 30.06in /  1017.8hPa NNW 5.0mph /  8km/h 12.0mph /  19.3km/h 87% 0.00in /  0mm
04:59 12.1 °F /  -11.1 °C 9.0 °F /  -12.8 °C 30.06in /  1017.8hPa NW 3.0mph /  4.8km/h 12.0mph /  19.3km/h 87% 0.00in /  0mm
05:04 12.1 °F /  -11.1 °C 9.0 °F /  -12.8 °C 30.06in /  1017.8hPa North 4.0mph /  6.4km/h 11.0mph /  17.7km/h 87% 0.00in /  0mm
05:09 12.0 °F /  -11.1 °C 8.9 °F /  -12.8 °C 30.06in /  1017.8hPa NNW 4.0mph /  6.4km/h 12.0mph /  19.3km/h 87% 0.00in /  0mm
05:14 12.0 °F /  -11.1 °C 8.9 °F /  -12.8 °C 30.07in /  1018.2hPa NW 3.0mph /  4.8km/h 11.0mph /  17.7km/h 87% 0.00in /  0mm
05:19 12.0 °F /  -11.1 °C 8.9 °F /  -12.8 °C 30.07in /  1018.2hPa NNW 5.0mph /  8km/h 15.0mph /  24.1km/h 87% 0.00in /  0mm
05:24 11.9 °F /  -11.2 °C 8.8 °F /  -12.9 °C 30.07in /  1018.2hPa NNW 6.0mph /  9.7km/h 15.0mph /  24.1km/h 87% 0.00in /  0mm
05:29 11.7 °F /  -11.3 °C 8.6 °F /  -13 °C 30.08in /  1018.5hPa NNW 7.0mph /  11.3km/h 15.0mph /  24.1km/h 87% 0.00in /  0mm
05:34 11.7 °F /  -11.3 °C 8.6 °F /  -13 °C 30.09in /  1018.8hPa NNW 6.0mph /  9.7km/h 12.0mph /  19.3km/h 87% 0.00in /  0mm
05:39 11.7 °F /  -11.3 °C 8.6 °F /  -13 °C 30.11in /  1019.5hPa NNW 3.0mph /  4.8km/h 9.0mph /  14.5km/h 87% 0.00in /  0mm
05:44 11.7 °F /  -11.3 °C 8.6 °F /  -13 °C 30.12in /  1019.9hPa NNW 4.0mph /  6.4km/h 8.0mph /  12.9km/h 87% 0.00in /  0mm
05:49 11.6 °F /  -11.3 °C 8.5 °F /  -13.1 °C 30.12in /  1019.9hPa NNE 5.0mph /  8km/h 13.0mph /  20.9km/h 87% 0.00in /  0mm
05:54 11.6 °F /  -11.3 °C 8.5 °F /  -13.1 °C 30.11in /  1019.5hPa NNW 4.0mph /  6.4km/h 13.0mph /  20.9km/h 87% 0.00in /  0mm
05:59 11.6 °F /  -11.3 °C 8.5 °F /  -13.1 °C 30.11in /  1019.5hPa NNW 5.0mph /  8km/h 10.0mph /  16.1km/h 87% 0.00in /  0mm
06:04 11.6 °F /  -11.3 °C 8.5 °F /  -13.1 °C 30.11in /  1019.5hPa NNW 4.0mph /  6.4km/h 10.0mph /  16.1km/h 87% 0.00in /  0mm
06:09 11.4 °F /  -11.4 °C 8.3 °F /  -13.2 °C 30.10in /  1019.2hPa NW 7.0mph /  11.3km/h 10.0mph /  16.1km/h 87% 0.00in /  0mm
06:14 11.4 °F /  -11.4 °C 8.3 °F /  -13.2 °C 30.12in /  1019.9hPa NW 4.0mph /  6.4km/h 11.0mph /  17.7km/h 87% 0.00in /  0mm
06:19 11.3 °F /  -11.5 °C 8.2 °F /  -13.2 °C 30.12in /  1019.9hPa NW 7.0mph /  11.3km/h 7.0mph /  11.3km/h 87% 0.00in /  0mm
06:24 11.3 °F /  -11.5 °C 8.2 °F /  -13.2 °C 30.12in /  1019.9hPa North 4.0mph /  6.4km/h 11.0mph /  17.7km/h 87% 0.00in /  0mm
06:29 11.1 °F /  -11.6 °C 8.0 °F /  -13.3 °C 30.12in /  1019.9hPa NNW 6.0mph /  9.7km/h 13.0mph /  20.9km/h 87% 0.00in /  0mm
06:34 11.1 °F /  -11.6 °C 8.0 °F /  -13.3 °C 30.13in /  1020.2hPa NNW 5.0mph /  8km/h 13.0mph /  20.9km/h 87% 0.00in /  0mm
06:39 11.1 °F /  -11.6 °C 8.0 °F /  -13.3 °C 30.14in /  1020.5hPa North 5.0mph /  8km/h 11.0mph /  17.7km/h 87% 0.00in /  0mm
06:44 11.0 °F /  -11.7 °C 7.9 °F /  -13.4 °C 30.14in /  1020.5hPa North 6.0mph /  9.7km/h 12.0mph /  19.3km/h 87% 0.00in /  0mm
06:49 11.0 °F /  -11.7 °C 7.9 °F /  -13.4 °C 30.14in /  1020.5hPa NNW 4.0mph /  6.4km/h 7.0mph /  11.3km/h 87% 0.00in /  0mm
06:54 10.9 °F /  -11.7 °C 7.5 °F /  -13.6 °C 30.14in /  1020.5hPa NNW 4.0mph /  6.4km/h 10.0mph /  16.1km/h 86% 0.00in /  0mm
06:59 10.9 °F /  -11.7 °C 7.5 °F /  -13.6 °C 30.15in /  1020.9hPa NNW 4.0mph /  6.4km/h 9.0mph /  14.5km/h 86% 0.00in /  0mm
07:04 10.8 °F /  -11.8 °C 7.4 °F /  -13.7 °C 30.15in /  1020.9hPa NNW 4.0mph /  6.4km/h 9.0mph /  14.5km/h 86% 0.00in /  0mm
07:09 10.9 °F /  -11.7 °C 7.5 °F /  -13.6 °C 30.16in /  1021.2hPa NNW 4.0mph /  6.4km/h 7.0mph /  11.3km/h 86% 0.00in /  0mm
07:14 10.9 °F /  -11.7 °C 7.5 °F /  -13.6 °C 30.16in /  1021.2hPa NNW 4.0mph /  6.4km/h 12.0mph /  19.3km/h 86% 0.00in /  0mm
07:19 10.8 °F /  -11.8 °C 7.4 °F /  -13.7 °C 30.16in /  1021.2hPa NW 4.0mph /  6.4km/h 10.0mph /  16.1km/h 86% 0.00in /  0mm
07:29 10.7 °F /  -11.8 °C 7.3 °F /  -13.7 °C 30.17in /  1021.6hPa NNW 9.0mph /  14.5km/h 9.0mph /  14.5km/h 86% 0.00in /  0mm
07:34 10.7 °F /  -11.8 °C 7.3 °F /  -13.7 °C 30.18in /  1021.9hPa NW 4.0mph /  6.4km/h 9.0mph /  14.5km/h 86% 0.00in /  0mm
07:39 10.6 °F /  -11.9 °C 7.2 °F /  -13.8 °C 30.18in /  1021.9hPa NNW 5.0mph /  8km/h 10.0mph /  16.1km/h 86% 0.00in /  0mm
07:44 10.5 °F /  -11.9 °C 7.1 °F /  -13.8 °C 30.18in /  1021.9hPa North 7.0mph /  11.3km/h 11.0mph /  17.7km/h 86% 0.00in /  0mm
07:49 10.4 °F /  -12 °C 7.0 °F /  -13.9 °C 30.19in /  1022.2hPa NNW 5.0mph /  8km/h 11.0mph /  17.7km/h 86% 0.00in /  0mm
07:54 10.4 °F /  -12 °C 7.0 °F /  -13.9 °C 30.19in /  1022.2hPa NNW 4.0mph /  6.4km/h 10.0mph /  16.1km/h 86% 0.00in /  0mm
07:59 10.4 °F /  -12 °C 7.0 °F /  -13.9 °C 30.19in /  1022.2hPa NNW 4.0mph /  6.4km/h 10.0mph /  16.1km/h 86% 0.00in /  0mm
08:04 10.4 °F /  -12 °C 7.0 °F /  -13.9 °C 30.20in /  1022.6hPa WNW 5.0mph /  8km/h 8.0mph /  12.9km/h 86% 0.00in /  0mm
08:09 10.4 °F /  -12 °C 7.0 °F /  -13.9 °C 30.20in /  1022.6hPa NW 5.0mph /  8km/h 9.0mph /  14.5km/h 86% 0.00in /  0mm
08:14 10.4 °F /  -12 °C 7.0 °F /  -13.9 °C 30.20in /  1022.6hPa NNW 4.0mph /  6.4km/h 11.0mph /  17.7km/h 86% 0.00in /  0mm
08:19 10.4 °F /  -12 °C 7.0 °F /  -13.9 °C 30.20in /  1022.6hPa NNW 3.0mph /  4.8km/h 9.0mph /  14.5km/h 86% 0.00in /  0mm
08:24 10.4 °F /  -12 °C 7.0 °F /  -13.9 °C 30.21in /  1022.9hPa WNW 3.0mph /  4.8km/h 9.0mph /  14.5km/h 86% 0.00in /  0mm
08:29 10.4 °F /  -12 °C 7.0 °F /  -13.9 °C 30.21in /  1022.9hPa NNW 1.0mph /  1.6km/h 8.0mph /  12.9km/h 86% 0.00in /  0mm
08:34 10.5 °F /  -11.9 °C 7.1 °F /  -13.8 °C 30.22in /  1023.2hPa NW 1.0mph /  1.6km/h 6.0mph /  9.7km/h 86% 0.00in /  0mm
08:39 10.6 °F /  -11.9 °C 7.2 °F /  -13.8 °C 30.22in /  1023.2hPa NW 5.0mph /  8km/h 6.0mph /  9.7km/h 86% 0.00in /  0mm
08:49 10.8 °F /  -11.8 °C 7.4 °F /  -13.7 °C 30.24in /  1023.9hPa NNW 4.0mph /  6.4km/h 8.0mph /  12.9km/h 86% 0.00in /  0mm
08:54 10.9 °F /  -11.7 °C 7.5 °F /  -13.6 °C 30.24in /  1023.9hPa NNW 4.0mph /  6.4km/h 7.0mph /  11.3km/h 86% 0.00in /  0mm
08:59 11.2 °F /  -11.6 °C 8.1 °F /  -13.3 °C 30.25in /  1024.3hPa NW 4.0mph /  6.4km/h 9.0mph /  14.5km/h 87% 0.00in /  0mm
09:04 11.2 °F /  -11.6 °C 7.8 °F /  -13.4 °C 30.25in /  1024.3hPa NW 5.0mph /  8km/h 9.0mph /  14.5km/h 86% 0.00in /  0mm
09:09 11.0 °F /  -11.7 °C 7.6 °F /  -13.6 °C 30.26in /  1024.6hPa NNW 5.0mph /  8km/h 8.0mph /  12.9km/h 86% 0.00in /  0mm
09:14 11.0 °F /  -11.7 °C 7.6 °F /  -13.6 °C 30.26in /  1024.6hPa NNW 5.0mph /  8km/h 7.0mph /  11.3km/h 86% 0.00in /  0mm
09:19 11.0 °F /  -11.7 °C 7.6 °F /  -13.6 °C 30.26in /  1024.6hPa Calm   6.0mph /  9.7km/h 86% 0.00in /  0mm
09:24 11.2 °F /  -11.6 °C 7.8 °F /  -13.4 °C 30.26in /  1024.6hPa NW 3.0mph /  4.8km/h 7.0mph /  11.3km/h 86% 0.00in /  0mm
09:29 11.3 °F /  -11.5 °C 7.9 °F /  -13.4 °C 30.26in /  1024.6hPa North 5.0mph /  8km/h 7.0mph /  11.3km/h 86% 0.00in /  0mm
09:34 11.4 °F /  -11.4 °C 8.0 °F /  -13.3 °C 30.27in /  1024.9hPa WNW 3.0mph /  4.8km/h 9.0mph /  14.5km/h 86% 0.00in /  0mm
09:39 11.4 °F /  -11.4 °C 8.0 °F /  -13.3 °C 30.27in /  1024.9hPa NNW 4.0mph /  6.4km/h 9.0mph /  14.5km/h 86% 0.00in /  0mm
09:44 11.5 °F /  -11.4 °C 8.1 °F /  -13.3 °C 30.27in /  1024.9hPa NNW 4.0mph /  6.4km/h 11.0mph /  17.7km/h 86% 0.00in /  0mm
09:49 11.4 °F /  -11.4 °C 8.0 °F /  -13.3 °C 30.27in /  1024.9hPa NW 4.0mph /  6.4km/h 10.0mph /  16.1km/h 86% 0.00in /  0mm
09:54 11.2 °F /  -11.6 °C 7.8 °F /  -13.4 °C 30.28in /  1025.3hPa NW 1.0mph /  1.6km/h 8.0mph /  12.9km/h 86% 0.00in /  0mm
09:59 11.9 °F /  -11.2 °C 8.3 °F /  -13.2 °C 30.28in /  1025.3hPa NNW 4.0mph /  6.4km/h 10.0mph /  16.1km/h 85% 0.00in /  0mm
10:04 12.1 °F /  -11.1 °C 8.5 °F /  -13.1 °C 30.29in /  1025.6hPa NNW 4.0mph /  6.4km/h 13.0mph /  20.9km/h 85% 0.00in /  0mm
10:09 12.1 °F /  -11.1 °C 8.2 °F /  -13.2 °C 30.29in /  1025.6hPa NW 5.0mph /  8km/h 13.0mph /  20.9km/h 84% 0.00in /  0mm
10:14 12.3 °F /  -10.9 °C 8.1 °F /  -13.3 °C 30.30in /  1026hPa NW 11.0mph /  17.7km/h 11.0mph /  17.7km/h 83% 0.00in /  0mm
10:19 12.2 °F /  -11 °C 7.8 °F /  -13.4 °C 30.30in /  1026hPa NNW 4.0mph /  6.4km/h 13.0mph /  20.9km/h 82% 0.00in /  0mm
10:24 12.3 °F /  -10.9 °C 7.9 °F /  -13.4 °C 30.30in /  1026hPa North 6.0mph /  9.7km/h 9.0mph /  14.5km/h 82% 0.00in /  0mm
10:29 12.5 °F /  -10.8 °C 8.0 °F /  -13.3 °C 30.30in /  1026hPa NNW 5.0mph /  8km/h 9.0mph /  14.5km/h 82% 0.00in /  0mm
10:34 12.5 °F /  -10.8 °C 8.0 °F /  -13.3 °C 30.30in /  1026hPa NNW 5.0mph /  8km/h 10.0mph /  16.1km/h 82% 0.00in /  0mm
10:39 12.6 °F /  -10.8 °C 8.1 °F /  -13.3 °C 30.30in /  1026hPa NNW 4.0mph /  6.4km/h 10.0mph /  16.1km/h 82% 0.00in /  0mm
10:49 12.6 °F /  -10.8 °C 8.1 °F /  -13.3 °C 30.31in /  1026.3hPa NNW 4.0mph /  6.4km/h 9.0mph /  14.5km/h 82% 0.00in /  0mm
10:54 12.8 °F /  -10.7 °C 8.1 °F /  -13.3 °C 30.31in /  1026.3hPa NNW 4.0mph /  6.4km/h 9.0mph /  14.5km/h 81% 0.00in /  0mm
10:59 13.0 °F /  -10.6 °C 7.7 °F /  -13.5 °C 30.31in /  1026.3hPa NNW 5.0mph /  8km/h 11.0mph /  17.7km/h 79% 0.00in /  0mm
11:09 13.3 °F /  -10.4 °C 7.7 °F /  -13.5 °C 30.31in /  1026.3hPa North 5.0mph /  8km/h 11.0mph /  17.7km/h 78% 0.00in /  0mm
11:14 13.4 °F /  -10.3 °C 7.8 °F /  -13.4 °C 30.31in /  1026.3hPa NNE 5.0mph /  8km/h 10.0mph /  16.1km/h 78% 0.00in /  0mm
11:19 13.1 °F /  -10.5 °C 7.2 °F /  -13.8 °C 30.31in /  1026.3hPa NW 4.0mph /  6.4km/h 12.0mph /  19.3km/h 77% 0.00in /  0mm
11:24 13.3 °F /  -10.4 °C 7.7 °F /  -13.5 °C 30.32in /  1026.6hPa NNW 3.0mph /  4.8km/h 9.0mph /  14.5km/h 78% 0.00in /  0mm
11:29 13.2 °F /  -10.4 °C 7.6 °F /  -13.6 °C 30.32in /  1026.6hPa North 4.0mph /  6.4km/h 8.0mph /  12.9km/h 78% 0.00in /  0mm
11:34 13.0 °F /  -10.6 °C 7.4 °F /  -13.7 °C 30.32in /  1026.6hPa WNW 5.0mph /  8km/h 11.0mph /  17.7km/h 78% 0.00in /  0mm
11:39 13.0 °F /  -10.6 °C 7.4 °F /  -13.7 °C 30.32in /  1026.6hPa NW 5.0mph /  8km/h 11.0mph /  17.7km/h 78% 0.00in /  0mm
11:54 13.0 °F /  -10.6 °C 7.4 °F /  -13.7 °C 30.32in /  1026.6hPa NW 5.0mph /  8km/h 10.0mph /  16.1km/h 78% 0.00in /  0mm
11:59 13.6 °F /  -10.2 °C 7.7 °F /  -13.5 °C 30.33in /  1027hPa NW 5.0mph /  8km/h 12.0mph /  19.3km/h 77% 0.00in /  0mm
12:04 13.2 °F /  -10.4 °C 7.0 °F /  -13.9 °C 30.33in /  1027hPa NNW 5.0mph /  8km/h 12.0mph /  19.3km/h 76% 0.00in /  0mm
12:14 13.4 °F /  -10.3 °C 7.5 °F /  -13.6 °C 30.33in /  1027hPa NNW 5.0mph /  8km/h 10.0mph /  16.1km/h 77% 0.00in /  0mm
12:19 13.0 °F /  -10.6 °C 7.1 °F /  -13.8 °C 30.33in /  1027hPa NNW 5.0mph /  8km/h 13.0mph /  20.9km/h 77% 0.00in /  0mm
12:29 12.7 °F /  -10.7 °C 6.6 °F /  -14.1 °C 30.33in /  1027hPa NW 3.0mph /  4.8km/h 9.0mph /  14.5km/h 76% 0.00in /  0mm
12:34 12.8 °F /  -10.7 °C 6.9 °F /  -13.9 °C 30.33in /  1027hPa WNW 7.0mph /  11.3km/h 11.0mph /  17.7km/h 77% 0.00in /  0mm
12:39 13.6 °F /  -10.2 °C 7.7 °F /  -13.5 °C 30.33in /  1027hPa NW 3.0mph /  4.8km/h 9.0mph /  14.5km/h 77% 0.00in /  0mm
12:44 13.9 °F /  -10.1 °C 7.7 °F /  -13.5 °C 30.33in /  1027hPa NW 9.0mph /  14.5km/h 16.0mph /  25.7km/h 76% 0.00in /  0mm
12:49 14.0 °F /  -10 °C 7.8 °F /  -13.4 °C 30.33in /  1027hPa NW 5.0mph /  8km/h 16.0mph /  25.7km/h 76% 0.00in /  0mm
12:54 13.6 °F /  -10.2 °C 7.4 °F /  -13.7 °C 30.33in /  1027hPa NW 5.0mph /  8km/h 11.0mph /  17.7km/h 76% 0.00in /  0mm
13:04 13.1 °F /  -10.5 °C 7.0 °F /  -13.9 °C 30.34in /  1027.3hPa NW 5.0mph /  8km/h 11.0mph /  17.7km/h 76% 0.00in /  0mm
13:09 12.7 °F /  -10.7 °C 6.3 °F /  -14.3 °C 30.34in /  1027.3hPa NW 5.0mph /  8km/h 11.0mph /  17.7km/h 75% 0.00in /  0mm
13:14 12.6 °F /  -10.8 °C 6.5 °F /  -14.2 °C 30.34in /  1027.3hPa NNW 5.0mph /  8km/h 10.0mph /  16.1km/h 76% 0.00in /  0mm
13:19 13.0 °F /  -10.6 °C 6.6 °F /  -14.1 °C 30.33in /  1027hPa WNW 5.0mph /  8km/h 12.0mph /  19.3km/h 75% 0.00in /  0mm
13:24 14.1 °F /  -9.9 °C 7.3 °F /  -13.7 °C 30.33in /  1027hPa NW 6.0mph /  9.7km/h 15.0mph /  24.1km/h 74% 0.00in /  0mm
13:29 13.8 °F /  -10.1 °C 6.7 °F /  -14.1 °C 30.34in /  1027.3hPa WNW 6.0mph /  9.7km/h 15.0mph /  24.1km/h 73% 0.00in /  0mm
13:34 13.4 °F /  -10.3 °C 6.4 °F /  -14.2 °C 30.34in /  1027.3hPa NNW 2.0mph /  3.2km/h 15.0mph /  24.1km/h 73% 0.00in /  0mm
13:39 14.6 °F /  -9.7 °C 7.5 °F /  -13.6 °C 30.34in /  1027.3hPa NNW 6.0mph /  9.7km/h 11.0mph /  17.7km/h 73% 0.00in /  0mm
13:44 14.9 °F /  -9.5 °C 6.9 °F /  -13.9 °C 30.34in /  1027.3hPa WNW 6.0mph /  9.7km/h 12.0mph /  19.3km/h 70% 0.00in /  0mm
13:49 14.5 °F /  -9.7 °C 6.2 °F /  -14.3 °C 30.35in /  1027.7hPa NW 5.0mph /  8km/h 13.0mph /  20.9km/h 69% 0.00in /  0mm
13:54 14.2 °F /  -9.9 °C 5.9 °F /  -14.5 °C 30.35in /  1027.7hPa NW 6.0mph /  9.7km/h 14.0mph /  22.5km/h 69% 0.00in /  0mm
13:59 14.1 °F /  -9.9 °C 5.8 °F /  -14.6 °C 30.35in /  1027.7hPa NNW 6.0mph /  9.7km/h 14.0mph /  22.5km/h 69% 0.00in /  0mm
14:04 13.8 °F /  -10.1 °C 5.5 °F /  -14.7 °C 30.35in /  1027.7hPa NNW 6.0mph /  9.7km/h 14.0mph /  22.5km/h 69% 0.00in /  0mm
14:09 13.8 °F /  -10.1 °C 5.5 °F /  -14.7 °C 30.36in /  1028hPa NW 6.0mph /  9.7km/h 14.0mph /  22.5km/h 69% 0.00in /  0mm
14:14 14.0 °F /  -10 °C 6.0 °F /  -14.4 °C 30.36in /  1028hPa NW 4.0mph /  6.4km/h 11.0mph /  17.7km/h 70% 0.00in /  0mm
14:19 14.2 °F /  -9.9 °C 5.9 °F /  -14.5 °C 30.36in /  1028hPa North 4.0mph /  6.4km/h 11.0mph /  17.7km/h 69% 0.00in /  0mm
14:24 13.9 °F /  -10.1 °C 5.6 °F /  -14.7 °C 30.37in /  1028.3hPa NNW 7.0mph /  11.3km/h 14.0mph /  22.5km/h 69% 0.00in /  0mm
14:29 13.6 °F /  -10.2 °C 5.0 °F /  -15 °C 30.37in /  1028.3hPa NW 7.0mph /  11.3km/h 14.0mph /  22.5km/h 68% 0.00in /  0mm
14:34 13.5 °F /  -10.3 °C 4.9 °F /  -15.1 °C 30.37in /  1028.3hPa NW 7.0mph /  11.3km/h 12.0mph /  19.3km/h 68% 0.00in /  0mm
14:39 13.4 °F /  -10.3 °C 4.5 °F /  -15.3 °C 30.38in /  1028.7hPa NW 6.0mph /  9.7km/h 13.0mph /  20.9km/h 67% 0.00in /  0mm
14:44 13.5 °F /  -10.3 °C 4.9 °F /  -15.1 °C 30.38in /  1028.7hPa NNW 6.0mph /  9.7km/h 13.0mph /  20.9km/h 68% 0.00in /  0mm
14:49 13.5 °F /  -10.3 °C 4.9 °F /  -15.1 °C 30.38in /  1028.7hPa NW 5.0mph /  8km/h 12.0mph /  19.3km/h 68% 0.00in /  0mm
14:54 13.3 °F /  -10.4 °C 4.7 °F /  -15.2 °C 30.38in /  1028.7hPa NNW 5.0mph /  8km/h 14.0mph /  22.5km/h 68% 0.00in /  0mm
14:59 13.5 °F /  -10.3 °C 4.9 °F /  -15.1 °C 30.39in /  1029hPa West 7.0mph /  11.3km/h 17.0mph /  27.4km/h 68% 0.00in /  0mm
15:04 13.5 °F /  -10.3 °C 4.9 °F /  -15.1 °C 30.39in /  1029hPa NW 6.0mph /  9.7km/h 17.0mph /  27.4km/h 68% 0.00in /  0mm
15:09 13.4 °F /  -10.3 °C 4.8 °F /  -15.1 °C 30.40in /  1029.3hPa NW 6.0mph /  9.7km/h 12.0mph /  19.3km/h 68% 0.00in /  0mm
15:14 13.2 °F /  -10.4 °C 4.6 °F /  -15.2 °C 30.41in /  1029.7hPa NW 5.0mph /  8km/h 12.0mph /  19.3km/h 68% 0.00in /  0mm
15:19 13.3 °F /  -10.4 °C 5.0 °F /  -15 °C 30.41in /  1029.7hPa NNW 7.0mph /  11.3km/h 10.0mph /  16.1km/h 69% 0.00in /  0mm
15:24 13.1 °F /  -10.5 °C 4.5 °F /  -15.3 °C 30.41in /  1029.7hPa WNW 3.0mph /  4.8km/h 12.0mph /  19.3km/h 68% 0.00in /  0mm
15:29 13.1 °F /  -10.5 °C 4.8 °F /  -15.1 °C 30.41in /  1029.7hPa NW 6.0mph /  9.7km/h 10.0mph /  16.1km/h 69% 0.00in /  0mm
15:34 13.0 °F /  -10.6 °C 5.4 °F /  -14.8 °C 30.42in /  1030hPa NNW 4.0mph /  6.4km/h 9.0mph /  14.5km/h 71% 0.00in /  0mm
15:39 13.4 °F /  -10.3 °C 5.7 °F /  -14.6 °C 30.42in /  1030hPa NW 3.0mph /  4.8km/h 9.0mph /  14.5km/h 71% 0.00in /  0mm
15:44 13.4 °F /  -10.3 °C 5.7 °F /  -14.6 °C 30.42in /  1030hPa NW 4.0mph /  6.4km/h 8.0mph /  12.9km/h 71% 0.00in /  0mm
15:49 13.0 °F /  -10.6 °C 5.0 °F /  -15 °C 30.43in /  1030.4hPa NW 5.0mph /  8km/h 10.0mph /  16.1km/h 70% 0.00in /  0mm
15:54 12.2 °F /  -11 °C 4.6 °F /  -15.2 °C 30.43in /  1030.4hPa WNW 5.0mph /  8km/h 10.0mph /  16.1km/h 71% 0.00in /  0mm
15:59 11.9 °F /  -11.2 °C 4.3 °F /  -15.4 °C 30.43in /  1030.4hPa West 8.0mph /  12.9km/h 9.0mph /  14.5km/h 71% 0.00in /  0mm
16:04 11.8 °F /  -11.2 °C 4.5 °F /  -15.3 °C 30.43in /  1030.4hPa West 5.0mph /  8km/h 9.0mph /  14.5km/h 72% 0.00in /  0mm
16:09 11.9 °F /  -11.2 °C 4.6 °F /  -15.2 °C 30.44in /  1030.7hPa NW 4.0mph /  6.4km/h 8.0mph /  12.9km/h 72% 0.00in /  0mm
16:14 11.8 °F /  -11.2 °C 4.8 °F /  -15.1 °C 30.44in /  1030.7hPa NW 3.0mph /  4.8km/h 8.0mph /  12.9km/h 73% 0.00in /  0mm
16:19 11.7 °F /  -11.3 °C 4.7 °F /  -15.2 °C 30.44in /  1030.7hPa NW 3.0mph /  4.8km/h 10.0mph /  16.1km/h 73% 0.00in /  0mm
16:24 11.7 °F /  -11.3 °C 4.7 °F /  -15.2 °C 30.45in /  1031hPa NW 5.0mph /  8km/h 10.0mph /  16.1km/h 73% 0.00in /  0mm
16:29 11.8 °F /  -11.2 °C 5.1 °F /  -14.9 °C 30.45in /  1031hPa NW 4.0mph /  6.4km/h 8.0mph /  12.9km/h 74% 0.00in /  0mm
16:34 11.7 °F /  -11.3 °C 5.0 °F /  -15 °C 30.45in /  1031hPa NW 4.0mph /  6.4km/h 9.0mph /  14.5km/h 74% 0.00in /  0mm
16:39 11.7 °F /  -11.3 °C 5.0 °F /  -15 °C 30.45in /  1031hPa WNW 4.0mph /  6.4km/h 9.0mph /  14.5km/h 74% 0.00in /  0mm
16:44 11.7 °F /  -11.3 °C 5.3 °F /  -14.8 °C 30.46in /  1031.4hPa NW 3.0mph /  4.8km/h 8.0mph /  12.9km/h 75% 0.00in /  0mm
16:49 11.6 °F /  -11.3 °C 5.2 °F /  -14.9 °C 30.46in /  1031.4hPa NNW 4.0mph /  6.4km/h 8.0mph /  12.9km/h 75% 0.00in /  0mm
16:54 11.6 °F /  -11.3 °C 5.2 °F /  -14.9 °C 30.46in /  1031.4hPa NNW 3.0mph /  4.8km/h 9.0mph /  14.5km/h 75% 0.00in /  0mm
16:59 11.5 °F /  -11.4 °C 5.1 °F /  -14.9 °C 30.46in /  1031.4hPa NNW 4.0mph /  6.4km/h 9.0mph /  14.5km/h 75% 0.00in /  0mm
17:04 11.5 °F /  -11.4 °C 5.1 °F /  -14.9 °C 30.47in /  1031.7hPa NNW 3.0mph /  4.8km/h 8.0mph /  12.9km/h 75% 0.00in /  0mm
17:09 11.6 °F /  -11.3 °C 5.2 °F /  -14.9 °C 30.47in /  1031.7hPa NW 5.0mph /  8km/h 10.0mph /  16.1km/h 75% 0.00in /  0mm
17:14 11.6 °F /  -11.3 °C 5.2 °F /  -14.9 °C 30.47in /  1031.7hPa West 7.0mph /  11.3km/h 9.0mph /  14.5km/h 75% 0.00in /  0mm
17:19 11.6 °F /  -11.3 °C 5.2 °F /  -14.9 °C 30.47in /  1031.7hPa WNW 6.0mph /  9.7km/h 7.0mph /  11.3km/h 75% 0.00in /  0mm
17:24 11.7 °F /  -11.3 °C 5.6 °F /  -14.7 °C 30.48in /  1032.1hPa NW 4.0mph /  6.4km/h 7.0mph /  11.3km/h 76% 0.00in /  0mm
17:29 11.7 °F /  -11.3 °C 5.3 °F /  -14.8 °C 30.48in /  1032.1hPa WNW 3.0mph /  4.8km/h 9.0mph /  14.5km/h 75% 0.00in /  0mm
17:34 11.8 °F /  -11.2 °C 5.4 °F /  -14.8 °C 30.48in /  1032.1hPa West 10.0mph /  16.1km/h 10.0mph /  16.1km/h 75% 0.00in /  0mm
17:39 11.7 °F /  -11.3 °C 5.3 °F /  -14.8 °C 30.48in /  1032.1hPa NNW 2.0mph /  3.2km/h 11.0mph /  17.7km/h 75% 0.00in /  0mm
17:44 11.6 °F /  -11.3 °C 5.2 °F /  -14.9 °C 30.48in /  1032.1hPa WNW 5.0mph /  8km/h 6.0mph /  9.7km/h 75% 0.00in /  0mm
17:49 11.4 °F /  -11.4 °C 4.7 °F /  -15.2 °C 30.49in /  1032.4hPa NW 8.0mph /  12.9km/h 8.0mph /  12.9km/h 74% 0.00in /  0mm
17:54 11.4 °F /  -11.4 °C 4.7 °F /  -15.2 °C 30.49in /  1032.4hPa WNW 3.0mph /  4.8km/h 9.0mph /  14.5km/h 74% 0.00in /  0mm
17:59 11.4 °F /  -11.4 °C 4.7 °F /  -15.2 °C 30.49in /  1032.4hPa WNW 3.0mph /  4.8km/h 9.0mph /  14.5km/h 74% 0.00in /  0mm
18:14 11.4 °F /  -11.4 °C 4.7 °F /  -15.2 °C 30.50in /  1032.7hPa WNW 4.0mph /  6.4km/h 11.0mph /  17.7km/h 74% 0.00in /  0mm
18:19 11.4 °F /  -11.4 °C 4.7 °F /  -15.2 °C 30.50in /  1032.7hPa WNW 4.0mph /  6.4km/h 11.0mph /  17.7km/h 74% 0.00in /  0mm
18:24 11.4 °F /  -11.4 °C 5.0 °F /  -15 °C 30.50in /  1032.7hPa WNW 7.0mph /  11.3km/h 9.0mph /  14.5km/h 75% 0.00in /  0mm
18:29 11.4 °F /  -11.4 °C 5.0 °F /  -15 °C 30.51in /  1033.1hPa NW 3.0mph /  4.8km/h 9.0mph /  14.5km/h 75% 0.00in /  0mm
18:34 11.4 °F /  -11.4 °C 5.0 °F /  -15 °C 30.51in /  1033.1hPa NW 4.0mph /  6.4km/h 9.0mph /  14.5km/h 75% 0.00in /  0mm
18:39 11.4 °F /  -11.4 °C 5.0 °F /  -15 °C 30.51in /  1033.1hPa NW 1.0mph /  1.6km/h 8.0mph /  12.9km/h 75% 0.00in /  0mm
18:44 11.5 °F /  -11.4 °C 5.4 °F /  -14.8 °C 30.51in /  1033.1hPa WNW 6.0mph /  9.7km/h 6.0mph /  9.7km/h 76% 0.00in /  0mm
18:49 11.5 °F /  -11.4 °C 5.1 °F /  -14.9 °C 30.51in /  1033.1hPa West 6.0mph /  9.7km/h 7.0mph /  11.3km/h 75% 0.00in /  0mm
18:54 11.4 °F /  -11.4 °C 5.3 °F /  -14.8 °C 30.51in /  1033.1hPa NW 1.0mph /  1.6km/h 9.0mph /  14.5km/h 76% 0.00in /  0mm
18:59 11.4 °F /  -11.4 °C 5.3 °F /  -14.8 °C 30.51in /  1033.1hPa WNW 2.0mph /  3.2km/h 8.0mph /  12.9km/h 76% 0.00in /  0mm
19:04 11.4 °F /  -11.4 °C 5.3 °F /  -14.8 °C 30.52in /  1033.4hPa WNW 4.0mph /  6.4km/h 8.0mph /  12.9km/h 76% 0.00in /  0mm
19:09 11.4 °F /  -11.4 °C 5.3 °F /  -14.8 °C 30.52in /  1033.4hPa WNW 4.0mph /  6.4km/h 9.0mph /  14.5km/h 76% 0.00in /  0mm
19:14 11.4 °F /  -11.4 °C 5.3 °F /  -14.8 °C 30.52in /  1033.4hPa WNW 5.0mph /  8km/h 12.0mph /  19.3km/h 76% 0.00in /  0mm
19:19 11.4 °F /  -11.4 °C 5.0 °F /  -15 °C 30.53in /  1033.7hPa WNW 5.0mph /  8km/h 12.0mph /  19.3km/h 75% 0.00in /  0mm
19:24 11.4 °F /  -11.4 °C 5.0 °F /  -15 °C 30.53in /  1033.7hPa WNW 4.0mph /  6.4km/h 9.0mph /  14.5km/h 75% 0.00in /  0mm
19:29 11.3 °F /  -11.5 °C 4.6 °F /  -15.2 °C 30.53in /  1033.7hPa NW 6.0mph /  9.7km/h 11.0mph /  17.7km/h 74% 0.00in /  0mm
19:34 11.1 °F /  -11.6 °C 4.4 °F /  -15.3 °C 30.53in /  1033.7hPa West 2.0mph /  3.2km/h 11.0mph /  17.7km/h 74% 0.00in /  0mm
19:39 10.9 °F /  -11.7 °C 4.2 °F /  -15.4 °C 30.54in /  1034.1hPa WNW 5.0mph /  8km/h 11.0mph /  17.7km/h 74% 0.00in /  0mm
19:44 10.8 °F /  -11.8 °C 4.1 °F /  -15.5 °C 30.54in /  1034.1hPa WNW 5.0mph /  8km/h 10.0mph /  16.1km/h 74% 0.00in /  0mm
19:49 10.8 °F /  -11.8 °C 4.4 °F /  -15.3 °C 30.54in /  1034.1hPa West 4.0mph /  6.4km/h 7.0mph /  11.3km/h 75% 0.00in /  0mm
19:54 10.8 °F /  -11.8 °C 4.4 °F /  -15.3 °C 30.55in /  1034.4hPa WNW 5.0mph /  8km/h 8.0mph /  12.9km/h 75% 0.00in /  0mm
19:59 10.8 °F /  -11.8 °C 4.4 °F /  -15.3 °C 30.55in /  1034.4hPa WNW 2.0mph /  3.2km/h 10.0mph /  16.1km/h 75% 0.00in /  0mm
20:04 10.8 °F /  -11.8 °C 4.4 °F /  -15.3 °C 30.55in /  1034.4hPa West 7.0mph /  11.3km/h 10.0mph /  16.1km/h 75% 0.00in /  0mm
20:09 10.6 °F /  -11.9 °C 4.5 °F /  -15.3 °C 30.55in /  1034.4hPa West 3.0mph /  4.8km/h 8.0mph /  12.9km/h 76% 0.00in /  0mm
20:14 10.6 °F /  -11.9 °C 4.5 °F /  -15.3 °C 30.55in /  1034.4hPa WNW 4.0mph /  6.4km/h 8.0mph /  12.9km/h 76% 0.00in /  0mm
20:19 10.6 °F /  -11.9 °C 4.8 °F /  -15.1 °C 30.56in /  1034.8hPa WNW 2.0mph /  3.2km/h 7.0mph /  11.3km/h 77% 0.00in /  0mm
20:24 10.5 °F /  -11.9 °C 4.7 °F /  -15.2 °C 30.56in /  1034.8hPa WNW 4.0mph /  6.4km/h 7.0mph /  11.3km/h 77% 0.00in /  0mm
20:29 10.3 °F /  -12.1 °C 4.8 °F /  -15.1 °C 30.56in /  1034.8hPa WNW 4.0mph /  6.4km/h 8.0mph /  12.9km/h 78% 0.00in /  0mm
20:34 10.0 °F /  -12.2 °C 4.8 °F /  -15.1 °C 30.57in /  1035.1hPa WNW 5.0mph /  8km/h 8.0mph /  12.9km/h 79% 0.00in /  0mm
20:39 9.8 °F /  -12.3 °C 4.9 °F /  -15.1 °C 30.56in /  1034.8hPa West 4.0mph /  6.4km/h 7.0mph /  11.3km/h 80% 0.00in /  0mm
20:44 9.7 °F /  -12.4 °C 4.8 °F /  -15.1 °C 30.57in /  1035.1hPa West 4.0mph /  6.4km/h 7.0mph /  11.3km/h 80% 0.00in /  0mm
20:49 9.5 °F /  -12.5 °C 4.6 °F /  -15.2 °C 30.57in /  1035.1hPa West 3.0mph /  4.8km/h 7.0mph /  11.3km/h 80% 0.00in /  0mm
20:59 9.2 °F /  -12.7 °C 4.6 °F /  -15.2 °C 30.58in /  1035.4hPa NW 3.0mph /  4.8km/h 6.0mph /  9.7km/h 81% 0.00in /  0mm
21:04 9.0 °F /  -12.8 °C 4.4 °F /  -15.3 °C 30.58in /  1035.4hPa West 3.0mph /  4.8km/h 7.0mph /  11.3km/h 81% 0.00in /  0mm
21:09 8.8 °F /  -12.9 °C 4.2 °F /  -15.4 °C 30.57in /  1035.1hPa West 2.0mph /  3.2km/h 5.0mph /  8km/h 81% 0.00in /  0mm
21:14 8.6 °F /  -13 °C 4.2 °F /  -15.4 °C 30.58in /  1035.4hPa West 1.0mph /  1.6km/h 3.0mph /  4.8km/h 82% 0.00in /  0mm
21:19 8.5 °F /  -13.1 °C 4.1 °F /  -15.5 °C 30.58in /  1035.4hPa Calm   3.0mph /  4.8km/h 82% 0.00in /  0mm
21:24 8.4 °F /  -13.1 °C 4.0 °F /  -15.6 °C 30.58in /  1035.4hPa West 1.0mph /  1.6km/h 3.0mph /  4.8km/h 82% 0.00in /  0mm
21:29 8.4 °F /  -13.1 °C 4.0 °F /  -15.6 °C 30.58in /  1035.4hPa West 1.0mph /  1.6km/h 3.0mph /  4.8km/h 82% 0.00in /  0mm
21:34 8.2 °F /  -13.2 °C 3.8 °F /  -15.7 °C 30.58in /  1035.4hPa Calm   2.0mph /  3.2km/h 82% 0.00in /  0mm
21:39 8.3 °F /  -13.2 °C 3.9 °F /  -15.6 °C 30.59in /  1035.8hPa Calm     82% 0.00in /  0mm
21:44 8.2 °F /  -13.2 °C 3.8 °F /  -15.7 °C 30.59in /  1035.8hPa Calm     82% 0.00in /  0mm
21:49 8.2 °F /  -13.2 °C 4.1 °F /  -15.5 °C 30.59in /  1035.8hPa Calm     83% 0.00in /  0mm
21:59 8.5 °F /  -13.1 °C 4.4 °F /  -15.3 °C 30.59in /  1035.8hPa West 1.0mph /  1.6km/h 3.0mph /  4.8km/h 83% 0.00in /  0mm
22:04 8.7 °F /  -12.9 °C 4.6 °F /  -15.2 °C 30.59in /  1035.8hPa WNW 2.0mph /  3.2km/h 7.0mph /  11.3km/h 83% 0.00in /  0mm
22:09 8.8 °F /  -12.9 °C 4.4 °F /  -15.3 °C 30.60in /  1036.1hPa WNW 3.0mph /  4.8km/h 8.0mph /  12.9km/h 82% 0.00in /  0mm
22:14 8.8 °F /  -12.9 °C 4.2 °F /  -15.4 °C 30.60in /  1036.1hPa NW 3.0mph /  4.8km/h 8.0mph /  12.9km/h 81% 0.00in /  0mm
22:19 8.9 °F /  -12.8 °C 4.3 °F /  -15.4 °C 30.60in /  1036.1hPa NNW 3.0mph /  4.8km/h 6.0mph /  9.7km/h 81% 0.00in /  0mm
22:24 8.9 °F /  -12.8 °C 4.0 °F /  -15.6 °C 30.60in /  1036.1hPa West 2.0mph /  3.2km/h 6.0mph /  9.7km/h 80% 0.00in /  0mm
22:29 8.9 °F /  -12.8 °C 3.7 °F /  -15.7 °C 30.60in /  1036.1hPa WNW 1.0mph /  1.6km/h 6.0mph /  9.7km/h 79% 0.00in /  0mm
22:34 8.8 °F /  -12.9 °C 3.3 °F /  -15.9 °C 30.61in /  1036.5hPa NW 3.0mph /  4.8km/h 7.0mph /  11.3km/h 78% 0.00in /  0mm
22:39 8.8 °F /  -12.9 °C 3.3 °F /  -15.9 °C 30.61in /  1036.5hPa NW 3.0mph /  4.8km/h 7.0mph /  11.3km/h 78% 0.00in /  0mm
22:44 8.8 °F /  -12.9 °C 3.3 °F /  -15.9 °C 30.60in /  1036.1hPa NW 2.0mph /  3.2km/h 5.0mph /  8km/h 78% 0.00in /  0mm
22:49 8.9 °F /  -12.8 °C 3.2 °F /  -16 °C 30.60in /  1036.1hPa NW 5.0mph /  8km/h 5.0mph /  8km/h 77% 0.00in /  0mm
22:54 8.8 °F /  -12.9 °C 3.1 °F /  -16.1 °C 30.60in /  1036.1hPa NW 2.0mph /  3.2km/h 5.0mph /  8km/h 77% 0.00in /  0mm
22:59 8.8 °F /  -12.9 °C 3.1 °F /  -16.1 °C 30.61in /  1036.5hPa Calm   5.0mph /  8km/h 77% 0.00in /  0mm
23:04 8.9 °F /  -12.8 °C 3.2 °F /  -16 °C 30.61in /  1036.5hPa Calm     77% 0.00in /  0mm
23:14 9.0 °F /  -12.8 °C 3.5 °F /  -15.8 °C 30.61in /  1036.5hPa NW 1.0mph /  1.6km/h 5.0mph /  8km/h 78% 0.00in /  0mm
23:19 9.2 °F /  -12.7 °C 3.7 °F /  -15.7 °C 30.61in /  1036.5hPa NW 1.0mph /  1.6km/h 4.0mph /  6.4km/h 78% 0.00in /  0mm
23:24 9.2 °F /  -12.7 °C 3.7 °F /  -15.7 °C 30.61in /  1036.5hPa NW 3.0mph /  4.8km/h 4.0mph /  6.4km/h 78% 0.00in /  0mm
23:29 9.2 °F /  -12.7 °C 3.7 °F /  -15.7 °C 30.61in /  1036.5hPa NW 2.0mph /  3.2km/h 3.0mph /  4.8km/h 78% 0.00in /  0mm
23:34 9.1 °F /  -12.7 °C 3.6 °F /  -15.8 °C 30.62in /  1036.8hPa Calm   2.0mph /  3.2km/h 78% 0.00in /  0mm
23:39 8.9 °F /  -12.8 °C 3.4 °F /  -15.9 °C 30.61in /  1036.5hPa NW 1.0mph /  1.6km/h 3.0mph /  4.8km/h 78% 0.00in /  0mm
23:44 8.8 °F /  -12.9 °C 3.6 °F /  -15.8 °C 30.61in /  1036.5hPa Calm   3.0mph /  4.8km/h 79% 0.00in /  0mm
23:49 8.7 °F /  -12.9 °C 3.5 °F /  -15.8 °C 30.61in /  1036.5hPa Calm   2.0mph /  3.2km/h 79% 0.00in /  0mm
23:54 8.5 °F /  -13.1 °C 3.3 °F /  -15.9 °C 30.62in /  1036.8hPa West 2.0mph /  3.2km/h 4.0mph /  6.4km/h 79% 0.00in /  0mm
23:59 8.5 °F /  -13.1 °C 3.6 °F /  -15.8 °C 30.62in /  1036.8hPa West 2.0mph /  3.2km/h 3.0mph /  4.8km/h 80% 0.00in /  0mm
Buffalo, New York, USA
Compliments of Weather Underground - 2.25 mb